Flight Track Log - Related Links

Times and Time Zones

All times are in EDT time to prevent confusion due to time zone crossing. See the N137TK flight status page for this flight to view local times or setup timezone preferences in your user account.

Time Position Orientation Groundspeed Altitude Reporting Facility
EDT Latitude Longitude Course Direction KTS MPH feet Rate Location/Type
Wed 04:41:00 PM 35.8389 -83.5533 116° Southeast  Level Estimated
Wed 04:42:00 PM 35.8180 -83.5000 116° Southeast  Level Estimated
Wed 04:43:00 PM 35.7971 -83.4468 116° Southeast  Level Estimated
Wed 04:44:00 PM 35.7761 -83.3935 116° Southeast  Level Estimated
Wed 04:45:00 PM 35.7551 -83.3403 116° Southeast  Level Estimated
Wed 04:46:00 PM 35.7341 -83.2871 116° Southeast  Level Estimated
Wed 04:47:00 PM 35.7131 -83.2340 116° Southeast  Level Estimated
Wed 04:48:00 PM 35.6921 -83.1809 116° Southeast  Level Estimated
Wed 04:49:00 PM 35.6710 -83.1278 116° Southeast  Level Estimated
Wed 04:50:00 PM 35.6499 -83.0747 116° Southeast  Level Estimated
Wed 04:51:00 PM 35.6288 -83.0217 116° Southeast  Level Estimated
Wed 04:52:00 PM 35.6077 -82.9687 116° Southeast  Level Estimated
Wed 04:53:00 PM 35.5865 -82.9157 116° Southeast  Level Estimated
Wed 04:54:00 PM 35.5653 -82.8627 116° Southeast  Level Estimated
Wed 04:55:00 PM 35.5441 -82.8098 116° Southeast  Level Estimated
Wed 04:56:00 PM 35.5229 -82.7569 116° Southeast  Level Estimated
Wed 04:57:00 PM 35.5016 -82.7040 116° Southeast  Level Estimated
Wed 04:58:00 PM 35.4803 -82.6512 116° Southeast  Level Estimated
Wed 04:59:00 PM 35.4590 -82.5984 116° Southeast  Level Estimated
Wed 05:00:00 PM 35.4377 -82.5456 116° Southeast  Level Estimated
Wed 05:01:00 PM 35.4362 -82.5418 116° Southeast  Level Estimated
Wed 05:02:00 PM 35.4362 -82.5418 39° Northeast  Level Estimated
Wed 05:03:00 PM 35.4362 -82.5418 39° Northeast  Level Estimated
Wed 05:04:00 PM 35.4362 -82.5418 39° Northeast  Level Estimated
Wed 05:05:00 PM 35.4362 -82.5418 39° Northeast  Level Estimated

Login

Don't have an account? Register now (free) for customized features, flight alerts, and more!